This is the latest recevied weather packets stored in our database for station/object SP1BMW-13. If no packets are shown the sender has not sent any weather packets the latest 1 day(s).
| Time | Temp. | Humidity | Pressure | Rain* | Wind** | Luminosity | Snow |
|---|---|---|---|---|---|---|---|
| 1777970747 | 11.67° C | 95% | 1009.8 hPa | 2.54 mm | 0 m/s | 100 W/m² | - |
| 1777970690 | 11.67° C | 95% | 1010 hPa | 2.79 mm | 0.45 m/s, 62° | 93 W/m² | - |
| 1777970626 | 11.67° C | 95% | 1009.9 hPa | 2.79 mm | 0.45 m/s, 39° | 90 W/m² | - |
| 1777970566 | 11.67° C | 96% | 1009.8 hPa | 2.79 mm | 0 m/s | 86 W/m² | - |
| 1777970516 | 11.67° C | 96% | 1009.9 hPa | 2.79 mm | 0 m/s | 80 W/m² | - |
| 1777970447 | 11.67° C | 96% | 1009.9 hPa | 2.79 mm | 0 m/s | 75 W/m² | - |
| 1777970386 | 11.67° C | 96% | 1010 hPa | 3.3 mm | 0.45 m/s, 120° | 74 W/m² | - |
| 1777970327 | 11.67° C | 96% | 1009.7 hPa | 3.3 mm | 0 m/s | 71 W/m² | - |
| 1777970266 | 11.67° C | 96% | 1009.8 hPa | 3.3 mm | 0 m/s | 69 W/m² | - |
| 1777970206 | 11.67° C | 95% | 1009.8 hPa | 3.3 mm | 0 m/s | 71 W/m² | - |
| 1777970146 | 11.67° C | 95% | 1009.8 hPa | 3.3 mm | 0.45 m/s, 132° | 78 W/m² | - |
| 1777970087 | 11.67° C | 96% | 1010 hPa | 3.81 mm | 0.45 m/s, 121° | 90 W/m² | - |
| 1777970026 | 11.67° C | 96% | 1010 hPa | 3.81 mm | 0 m/s | 96 W/m² | - |
| 1777969967 | 11.67° C | 96% | 1009.7 hPa | 3.81 mm | 0.45 m/s, 111° | 118 W/m² | - |
| 1777969907 | 11.67° C | 96% | 1009.8 hPa | 3.56 mm | 0 m/s | 125 W/m² | - |
| 1777969847 | 11.67° C | 96% | 1009.7 hPa | 3.56 mm | 0 m/s | 136 W/m² | - |
| 1777969787 | 11.67° C | 96% | 1010 hPa | 4.06 mm | 0 m/s | 132 W/m² | - |
| 1777969727 | 11.67° C | 96% | 1009.8 hPa | 4.06 mm | 0.45 m/s, 80° | 119 W/m² | - |
| 1777969667 | 11.67° C | 96% | 1009.8 hPa | 4.06 mm | 0 m/s | 108 W/m² | - |
| 1777969607 | 11.67° C | 96% | 1009.7 hPa | 4.06 mm | 0 m/s | 104 W/m² | - |
| 1777969547 | 11.67° C | 96% | 1009.7 hPa | 4.06 mm | 0 m/s | 104 W/m² | - |
| 1777969487 | 11.67° C | 96% | 1009.9 hPa | 4.57 mm | 0 m/s | 107 W/m² | - |
| 1777969427 | 11.67° C | 96% | 1009.8 hPa | 4.57 mm | 0 m/s | 105 W/m² | - |
| 1777969367 | 11.67° C | 96% | 1009.7 hPa | 4.57 mm | 0.89 m/s, 26° | 99 W/m² | - |
| 1777969307 | 11.67° C | 96% | 1009.8 hPa | 4.57 mm | 0.89 m/s, 43° | 93 W/m² | - |
* Rain latest hour (hover to see other rain measurements)
** Current wind speed in m/s (hover to see current wind gust speed)